createdAt,value
2023-05-06T00:00:19.305Z,24.66
2023-05-06T00:01:19.379Z,24.66
2023-05-06T00:02:19.450Z,24.65
2023-05-06T00:03:19.614Z,24.66
2023-05-06T00:04:19.582Z,24.66
2023-05-06T00:05:19.574Z,24.66
2023-05-06T00:06:19.637Z,24.66
2023-05-06T00:07:19.657Z,24.66
2023-05-06T00:08:19.699Z,24.65
2023-05-06T00:09:19.761Z,24.65
2023-05-06T00:10:19.811Z,24.65
2023-05-06T00:11:19.876Z,24.64
2023-05-06T00:12:20.007Z,24.64
2023-05-06T00:13:20.091Z,24.65
2023-05-06T00:14:20.011Z,24.65
2023-05-06T00:15:20.087Z,24.65
2023-05-06T00:16:20.174Z,24.65
2023-05-06T00:17:20.176Z,24.64
2023-05-06T00:18:20.241Z,24.64
2023-05-06T00:19:20.266Z,24.64
2023-05-06T00:20:20.308Z,24.64
2023-05-06T00:21:20.365Z,24.63
2023-05-06T00:22:20.431Z,24.64
2023-05-06T00:23:20.490Z,24.64
2023-05-06T00:24:20.557Z,24.63
2023-05-06T00:25:20.598Z,24.62
2023-05-06T00:26:20.662Z,24.63
2023-05-06T00:27:20.708Z,24.63
2023-05-06T00:28:20.843Z,24.63
2023-05-06T00:29:20.819Z,24.63
2023-05-06T00:30:20.855Z,24.62
2023-05-06T00:31:20.941Z,24.63
2023-05-06T00:32:20.988Z,24.62
2023-05-06T00:33:21.034Z,24.62
2023-05-06T00:34:21.098Z,24.63
2023-05-06T00:35:21.142Z,24.62
2023-05-06T00:36:21.198Z,24.62
2023-05-06T00:37:21.256Z,24.62
2023-05-06T00:38:21.297Z,24.62
2023-05-06T00:39:21.360Z,24.62
2023-05-06T00:40:21.405Z,24.61
2023-05-06T00:41:21.458Z,24.61
2023-05-06T00:42:21.539Z,24.61
2023-05-06T00:43:21.579Z,24.61
2023-05-06T00:44:21.649Z,24.60
2023-05-06T00:45:21.729Z,24.61
2023-05-06T00:46:21.844Z,24.60
2023-05-06T00:47:21.850Z,24.60
2023-05-06T00:48:21.873Z,24.60
2023-05-06T00:49:21.913Z,24.61
2023-05-06T00:50:21.988Z,24.60
2023-05-06T00:51:22.048Z,24.60
2023-05-06T00:52:22.113Z,24.60
2023-05-06T00:53:22.166Z,24.60
2023-05-06T00:54:22.219Z,24.60
2023-05-06T00:55:22.289Z,24.60
2023-05-06T00:56:22.343Z,24.59
2023-05-06T00:57:22.397Z,24.59
2023-05-06T00:58:22.458Z,24.59
2023-05-06T00:59:22.533Z,24.59
2023-05-06T01:00:22.622Z,24.59
2023-05-06T01:01:22.671Z,24.59
2023-05-06T01:02:26.368Z,24.59
2023-05-06T01:03:23.741Z,24.58
2023-05-06T01:04:22.692Z,24.58
2023-05-06T01:05:22.815Z,24.58
2023-05-06T01:06:22.676Z,24.59
2023-05-06T01:07:22.649Z,24.58
2023-05-06T01:08:22.642Z,24.57
2023-05-06T01:09:22.617Z,24.58
2023-05-06T01:10:22.632Z,24.57
2023-05-06T01:11:22.614Z,24.57
2023-05-06T01:12:22.616Z,24.57
2023-05-06T01:13:22.732Z,24.57
2023-05-06T01:14:22.728Z,24.58
2023-05-06T01:15:22.770Z,24.58
2023-05-06T01:16:22.881Z,24.58
2023-05-06T01:17:22.903Z,24.57
2023-05-06T01:18:22.957Z,24.57
2023-05-06T01:19:23.027Z,24.57
2023-05-06T01:20:23.070Z,24.57
2023-05-06T01:21:23.135Z,24.57
2023-05-06T01:22:23.166Z,24.56
2023-05-06T01:23:23.248Z,24.56
2023-05-06T01:24:23.297Z,24.56
2023-05-06T01:25:23.354Z,24.56
2023-05-06T01:26:23.413Z,24.56
2023-05-06T01:27:23.465Z,24.56
2023-05-06T01:28:23.528Z,24.56
2023-05-06T01:29:23.585Z,24.55
2023-05-06T01:30:23.643Z,24.55
2023-05-06T01:31:23.782Z,24.56
2023-05-06T01:32:23.925Z,24.55
2023-05-06T01:33:23.845Z,24.56
2023-05-06T01:34:23.882Z,24.55
2023-05-06T01:35:23.943Z,24.55
2023-05-06T01:36:24.002Z,24.55
2023-05-06T01:37:24.062Z,24.55
2023-05-06T01:38:24.113Z,24.55
2023-05-06T01:39:24.173Z,24.55
2023-05-06T01:40:24.240Z,24.54
2023-05-06T01:41:24.300Z,24.55
2023-05-06T01:42:24.346Z,24.54
2023-05-06T01:43:24.409Z,24.54
2023-05-06T01:44:24.484Z,24.54
2023-05-06T01:45:24.551Z,24.54
2023-05-06T01:46:24.653Z,24.54
2023-05-06T01:47:24.702Z,24.53
2023-05-06T01:48:24.791Z,24.54
2023-05-06T01:49:24.796Z,24.53
2023-05-06T01:50:24.853Z,24.53
2023-05-06T01:51:24.912Z,24.52
2023-05-06T01:52:24.978Z,24.53
2023-05-06T01:53:25.039Z,24.53
2023-05-06T01:54:25.104Z,24.53
2023-05-06T01:55:25.168Z,24.52
2023-05-06T01:56:25.217Z,24.52
2023-05-06T01:57:25.262Z,24.52
2023-05-06T01:58:25.331Z,24.52
2023-05-06T01:59:25.399Z,24.52
2023-05-06T02:00:25.499Z,24.51
2023-05-06T02:01:25.551Z,24.52
2023-05-06T02:02:25.653Z,24.51
2023-05-06T02:03:25.695Z,24.52
2023-05-06T02:04:25.705Z,24.52
2023-05-06T02:05:25.733Z,24.52
2023-05-06T02:06:25.814Z,24.50
2023-05-06T02:07:25.860Z,24.51
2023-05-06T02:08:25.931Z,24.51
2023-05-06T02:09:25.972Z,24.51
2023-05-06T02:10:26.051Z,24.50
2023-05-06T02:11:26.124Z,24.50
2023-05-06T02:12:26.171Z,24.50
2023-05-06T02:13:26.217Z,24.50
2023-05-06T02:14:26.284Z,24.50
2023-05-06T02:15:26.336Z,24.49
2023-05-06T02:16:26.444Z,24.50
2023-05-06T02:17:26.469Z,24.48
2023-05-06T02:18:26.547Z,24.49
2023-05-06T02:19:26.598Z,24.49
2023-05-06T02:20:26.723Z,24.49
2023-05-06T02:21:26.735Z,24.49
2023-05-06T02:22:27.536Z,24.49
2023-05-06T02:23:26.869Z,24.48
2023-05-06T02:24:26.958Z,24.49
2023-05-06T02:25:26.990Z,24.48
2023-05-06T02:26:27.044Z,24.49
2023-05-06T02:27:27.106Z,24.48
2023-05-06T02:28:27.156Z,24.48
2023-05-06T02:29:27.226Z,24.48
2023-05-06T02:30:27.284Z,24.47
2023-05-06T02:31:27.448Z,24.47
2023-05-06T02:32:27.449Z,24.48
2023-05-06T02:33:27.489Z,24.48
2023-05-06T02:34:27.562Z,24.47
2023-05-06T02:35:27.594Z,24.47
2023-05-06T02:36:27.726Z,24.47
2023-05-06T02:37:27.745Z,24.47
2023-05-06T02:38:27.807Z,24.47
2023-05-06T02:39:27.853Z,24.47
2023-05-06T02:40:27.917Z,24.47
2023-05-06T02:41:27.996Z,24.47
2023-05-06T02:42:28.065Z,24.47
2023-05-06T02:43:28.127Z,24.47
2023-05-06T02:44:28.175Z,24.46
2023-05-06T02:45:28.273Z,24.46
2023-05-06T02:46:28.294Z,24.45
2023-05-06T02:47:28.435Z,24.46
2023-05-06T02:48:28.449Z,24.46
2023-05-06T02:49:28.510Z,24.45
2023-05-06T02:50:28.577Z,24.46
2023-05-06T02:51:28.636Z,24.46
2023-05-06T02:52:28.742Z,24.46
2023-05-06T02:53:28.746Z,24.45
2023-05-06T02:54:28.817Z,24.45
2023-05-06T02:55:29.062Z,24.45
2023-05-06T02:56:28.966Z,24.44
2023-05-06T02:57:28.996Z,24.45
2023-05-06T02:58:29.054Z,24.45
2023-05-06T02:59:29.130Z,24.44
2023-05-06T03:00:29.195Z,24.44
2023-05-06T03:01:29.353Z,24.44
2023-05-06T03:02:29.371Z,24.44
2023-05-06T03:03:29.380Z,24.44
2023-05-06T03:04:29.467Z,24.44
2023-05-06T03:05:29.527Z,24.43
2023-05-06T03:06:29.580Z,24.44
2023-05-06T03:07:29.635Z,24.43
2023-05-06T03:08:29.769Z,24.43
2023-05-06T03:09:29.769Z,24.44
2023-05-06T03:10:29.842Z,24.44
2023-05-06T03:11:29.893Z,24.43
2023-05-06T03:12:29.945Z,24.43
2023-05-06T03:13:30.029Z,24.43
2023-05-06T03:14:30.092Z,24.42
2023-05-06T03:15:30.162Z,24.42
2023-05-06T03:16:30.321Z,24.42
2023-05-06T03:17:30.322Z,24.42
2023-05-06T03:18:30.333Z,24.42
2023-05-06T03:19:30.408Z,24.42
2023-05-06T03:20:30.479Z,24.42
2023-05-06T03:21:30.615Z,24.42
2023-05-06T03:22:30.608Z,24.42
2023-05-06T03:23:30.652Z,24.42
2023-05-06T03:24:30.822Z,24.42
2023-05-06T03:25:30.779Z,24.41
2023-05-06T03:26:30.836Z,24.41
2023-05-06T03:27:30.898Z,24.42
2023-05-06T03:28:31.014Z,24.41
2023-05-06T03:29:31.012Z,24.42
2023-05-06T03:30:31.072Z,24.41
2023-05-06T03:31:31.265Z,24.41
2023-05-06T03:32:31.220Z,24.41
2023-05-06T03:33:31.259Z,24.41
2023-05-06T03:34:31.312Z,24.41
2023-05-06T03:35:31.365Z,24.41
2023-05-06T03:36:31.433Z,24.41
2023-05-06T03:37:31.499Z,24.41
2023-05-06T03:38:31.547Z,24.41
2023-05-06T03:39:31.669Z,24.41
2023-05-06T03:40:31.711Z,24.40
2023-05-06T03:41:31.728Z,24.40
2023-05-06T03:42:31.789Z,24.40
2023-05-06T03:43:31.833Z,24.40
2023-05-06T03:44:31.886Z,24.40
2023-05-06T03:45:31.993Z,24.40
2023-05-06T03:46:32.059Z,24.39
2023-05-06T03:47:32.109Z,24.40
2023-05-06T03:48:32.167Z,24.40
2023-05-06T03:49:32.223Z,24.40
2023-05-06T03:50:32.316Z,24.40
2023-05-06T03:51:32.347Z,24.39
2023-05-06T03:52:32.425Z,24.40
2023-05-06T03:53:32.476Z,24.39
2023-05-06T03:54:32.533Z,24.39
2023-05-06T03:55:32.597Z,24.39
2023-05-06T03:56:32.902Z,24.40
2023-05-06T03:57:32.745Z,24.39
2023-05-06T03:58:32.771Z,24.39
2023-05-06T03:59:32.818Z,24.39
2023-05-06T04:00:32.872Z,24.39
2023-05-06T04:01:32.923Z,24.40
2023-05-06T04:02:33.071Z,24.39
2023-05-06T04:03:33.109Z,24.38
2023-05-06T04:04:33.078Z,24.38
2023-05-06T04:05:33.147Z,24.38
2023-05-06T04:06:33.179Z,24.39
2023-05-06T04:07:33.284Z,24.38
2023-05-06T04:08:33.299Z,24.38
2023-05-06T04:09:33.348Z,24.38
2023-05-06T04:10:33.384Z,24.38
2023-05-06T04:11:33.428Z,24.38
2023-05-06T04:12:33.527Z,24.38
2023-05-06T04:13:33.489Z,24.37
2023-05-06T04:14:33.509Z,24.37
2023-05-06T04:15:33.565Z,24.37
2023-05-06T04:16:33.690Z,24.38
2023-05-06T04:17:33.682Z,24.37
2023-05-06T04:18:33.712Z,24.37
2023-05-06T04:19:33.754Z,24.37
2023-05-06T04:20:33.804Z,24.37
2023-05-06T04:21:33.855Z,24.37
2023-05-06T04:22:33.907Z,24.37
2023-05-06T04:23:33.957Z,24.36
2023-05-06T04:24:33.994Z,24.36
2023-05-06T04:25:34.069Z,24.36
2023-05-06T04:26:34.101Z,24.36
2023-05-06T04:27:34.165Z,24.37
2023-05-06T04:28:34.449Z,24.35
2023-05-06T04:29:34.268Z,24.36
2023-05-06T04:30:34.295Z,24.36
2023-05-06T04:31:34.414Z,24.36
2023-05-06T04:32:34.457Z,24.36
2023-05-06T04:33:34.439Z,24.35
2023-05-06T04:34:34.486Z,24.35
2023-05-06T04:35:34.526Z,24.36
2023-05-06T04:36:34.546Z,24.36
2023-05-06T04:37:34.608Z,24.36
2023-05-06T04:38:34.697Z,24.35
2023-05-06T04:39:34.685Z,24.35
2023-05-06T04:40:34.768Z,24.35
2023-05-06T04:41:34.797Z,24.35
2023-05-06T04:42:34.843Z,24.35
2023-05-06T04:43:34.890Z,24.35
2023-05-06T04:44:34.891Z,24.35
2023-05-06T04:45:34.961Z,24.34
2023-05-06T04:46:34.975Z,24.35
2023-05-06T04:47:35.025Z,24.35
2023-05-06T04:48:35.052Z,24.35
2023-05-06T04:49:35.095Z,24.35
2023-05-06T04:50:35.114Z,24.34
2023-05-06T04:51:35.132Z,24.35
2023-05-06T04:52:35.173Z,24.34
2023-05-06T04:53:35.195Z,24.34
2023-05-06T04:54:35.214Z,24.34
2023-05-06T04:55:35.242Z,24.33
2023-05-06T04:56:35.264Z,24.34
2023-05-06T04:57:35.278Z,24.35
2023-05-06T04:58:35.317Z,24.34
2023-05-06T04:59:35.372Z,24.34
2023-05-06T05:00:35.383Z,24.33
2023-05-06T05:01:35.413Z,24.33
2023-05-06T05:02:35.580Z,24.34
2023-05-06T05:03:35.570Z,24.33
2023-05-06T05:04:35.536Z,24.33
2023-05-06T05:05:35.573Z,24.33
2023-05-06T05:06:35.613Z,24.33
2023-05-06T05:07:35.632Z,24.33
2023-05-06T05:08:35.675Z,24.33
2023-05-06T05:09:35.733Z,24.34
2023-05-06T05:10:35.746Z,24.33
2023-05-06T05:11:35.800Z,24.34
2023-05-06T05:12:35.826Z,24.33
2023-05-06T05:13:35.828Z,24.33
2023-05-06T05:14:35.884Z,24.33
2023-05-06T05:15:35.931Z,24.33
2023-05-06T05:16:36.081Z,24.33
2023-05-06T05:17:36.131Z,24.32
2023-05-06T05:18:36.148Z,24.33
2023-05-06T05:19:36.165Z,24.33
2023-05-06T05:20:36.172Z,24.33
2023-05-06T05:21:36.227Z,24.33
2023-05-06T05:22:36.230Z,24.33
2023-05-06T05:23:36.261Z,24.33
2023-05-06T05:24:36.286Z,24.32
2023-05-06T05:25:36.349Z,24.33
2023-05-06T05:26:36.394Z,24.32
2023-05-06T05:27:36.412Z,24.32
2023-05-06T05:28:36.417Z,24.32
2023-05-06T05:29:36.442Z,24.33
2023-05-06T05:30:36.470Z,24.32
2023-05-06T05:31:36.526Z,24.32
2023-05-06T05:32:36.602Z,24.32
2023-05-06T05:33:36.640Z,24.32
2023-05-06T05:34:36.639Z,24.33
2023-05-06T05:35:36.656Z,24.32
2023-05-06T05:36:36.717Z,24.32
2023-05-06T05:37:36.727Z,24.32
2023-05-06T05:38:36.742Z,24.32
2023-05-06T05:39:36.804Z,24.32
2023-05-06T05:40:36.817Z,24.32
2023-05-06T05:41:36.846Z,24.32
2023-05-06T05:42:36.894Z,24.32
2023-05-06T05:43:36.936Z,24.32
2023-05-06T05:44:36.957Z,24.32
2023-05-06T05:45:36.978Z,24.31
2023-05-06T05:46:37.042Z,24.31
2023-05-06T05:47:37.083Z,24.31
2023-05-06T05:48:37.228Z,24.31
2023-05-06T05:49:37.180Z,24.31
2023-05-06T05:50:37.162Z,24.31
2023-05-06T05:51:37.194Z,24.31
2023-05-06T05:52:37.230Z,24.31
2023-05-06T05:53:37.280Z,24.31
2023-05-06T05:54:37.349Z,24.30
2023-05-06T05:55:37.397Z,24.31
2023-05-06T05:56:37.444Z,24.31
2023-05-06T05:57:37.486Z,24.31
2023-05-06T05:58:37.509Z,24.31
2023-05-06T05:59:37.578Z,24.31
2023-05-06T06:00:37.543Z,24.30
2023-05-06T06:01:37.568Z,24.31
2023-05-06T06:02:37.727Z,24.31
2023-05-06T06:03:37.753Z,24.31
2023-05-06T06:04:37.912Z,24.30
2023-05-06T06:05:37.749Z,24.31
2023-05-06T06:06:37.779Z,24.31
2023-05-06T06:07:37.830Z,24.31
2023-05-06T06:08:37.852Z,24.31
2023-05-06T06:09:37.899Z,24.30
2023-05-06T06:10:37.932Z,24.30
2023-05-06T06:11:37.989Z,24.30
2023-05-06T06:12:38.045Z,24.30
2023-05-06T06:13:38.059Z,24.30
2023-05-06T06:14:38.063Z,24.30
2023-05-06T06:15:38.112Z,24.30
2023-05-06T06:16:38.355Z,24.30
2023-05-06T06:17:38.259Z,24.29
2023-05-06T06:18:38.202Z,24.29
2023-05-06T06:19:38.249Z,24.29
2023-05-06T06:20:38.337Z,24.29
2023-05-06T06:21:38.293Z,24.30
2023-05-06T06:22:38.325Z,24.30
2023-05-06T06:23:38.390Z,24.30
2023-05-06T06:24:38.434Z,24.30
2023-05-06T06:25:38.497Z,24.30
2023-05-06T06:26:38.522Z,24.29
2023-05-06T06:27:38.544Z,24.30
2023-05-06T06:28:38.607Z,24.30
2023-05-06T06:29:38.643Z,24.29
2023-05-06T06:30:38.701Z,24.29
2023-05-06T06:31:40.438Z,24.30
2023-05-06T06:32:38.860Z,24.30
2023-05-06T06:33:38.829Z,24.29
2023-05-06T06:34:38.878Z,24.29
2023-05-06T06:35:38.929Z,24.30
2023-05-06T06:36:38.970Z,24.29
2023-05-06T06:37:39.018Z,24.29
2023-05-06T06:38:39.050Z,24.30
2023-05-06T06:39:39.104Z,24.30
2023-05-06T06:40:39.164Z,24.29
2023-05-06T06:41:39.159Z,24.29
2023-05-06T06:42:39.211Z,24.30
2023-05-06T06:43:39.222Z,24.29
2023-05-06T06:44:39.257Z,24.30
2023-05-06T06:45:39.311Z,24.29
2023-05-06T06:46:39.320Z,24.29
2023-05-06T06:47:39.388Z,24.29
2023-05-06T06:48:39.388Z,24.29
2023-05-06T06:50:22.342Z,24.26
2023-05-06T06:51:22.320Z,24.28
2023-05-06T06:52:22.367Z,24.28
2023-05-06T06:53:22.322Z,24.28
2023-05-06T06:54:22.310Z,24.28
2023-05-06T06:55:22.297Z,24.29
2023-05-06T06:56:22.296Z,24.29
2023-05-06T06:57:22.297Z,24.29
2023-05-06T06:58:22.302Z,24.29
2023-05-06T06:59:22.273Z,24.28
2023-05-06T07:00:22.269Z,24.29
2023-05-06T07:01:22.302Z,24.29
2023-05-06T07:02:22.246Z,24.29
2023-05-06T07:03:22.250Z,24.29
2023-05-06T07:04:22.245Z,24.29
2023-05-06T07:05:22.214Z,24.29
2023-05-06T07:06:22.204Z,24.30
2023-05-06T07:07:22.210Z,24.29
2023-05-06T07:08:22.205Z,24.29
2023-05-06T07:09:22.196Z,24.29
2023-05-06T07:10:22.193Z,24.30
2023-05-06T07:11:22.186Z,24.29
2023-05-06T07:12:22.176Z,24.29
2023-05-06T07:13:22.266Z,24.29
2023-05-06T07:14:22.171Z,24.29
2023-05-06T07:15:22.169Z,24.29
2023-05-06T07:16:22.196Z,24.29
2023-05-06T07:17:22.227Z,24.30
2023-05-06T07:18:22.204Z,24.30
2023-05-06T07:19:22.114Z,24.30
2023-05-06T07:20:22.115Z,24.30
2023-05-06T07:21:22.099Z,24.30
2023-05-06T07:22:22.122Z,24.30
2023-05-06T07:23:22.112Z,24.31
2023-05-06T07:24:22.157Z,24.31
2023-05-06T07:25:22.087Z,24.31
2023-05-06T07:26:22.156Z,24.31
2023-05-06T07:27:22.202Z,24.31
2023-05-06T07:28:22.298Z,24.31
2023-05-06T07:29:22.322Z,24.31
2023-05-06T07:30:23.291Z,24.31
2023-05-06T07:31:22.363Z,24.31
2023-05-06T07:32:22.468Z,24.31
2023-05-06T07:33:22.366Z,24.31
2023-05-06T07:34:22.345Z,24.32
2023-05-06T07:35:22.343Z,24.32
2023-05-06T07:36:22.329Z,24.31
2023-05-06T07:37:22.329Z,24.31
2023-05-06T07:38:22.322Z,24.31
2023-05-06T07:39:22.317Z,24.32
2023-05-06T07:40:22.312Z,24.31
2023-05-06T07:41:22.313Z,24.32
2023-05-06T07:42:22.288Z,24.32
2023-05-06T07:43:22.286Z,24.31
2023-05-06T07:44:22.279Z,24.31
2023-05-06T07:45:22.261Z,24.32
2023-05-06T07:46:22.296Z,24.32
2023-05-06T07:47:22.343Z,24.31
2023-05-06T07:48:22.300Z,24.32
2023-05-06T07:49:22.227Z,24.31
2023-05-06T07:50:22.253Z,24.32
2023-05-06T07:51:22.214Z,24.32
2023-05-06T07:52:22.219Z,24.31
2023-05-06T07:53:22.226Z,24.32
2023-05-06T07:54:22.231Z,24.32
2023-05-06T07:55:22.195Z,24.32
2023-05-06T07:56:22.186Z,24.32
2023-05-06T07:57:22.280Z,24.32
2023-05-06T07:58:22.173Z,24.31
2023-05-06T07:59:22.160Z,24.31
2023-05-06T08:00:22.161Z,24.31
2023-05-06T08:01:22.144Z,24.31
2023-05-06T08:02:22.288Z,24.31
2023-05-06T08:03:22.278Z,24.32
2023-05-06T08:04:22.167Z,24.31
2023-05-06T08:05:22.121Z,24.31
2023-05-06T08:06:22.116Z,24.31
2023-05-06T08:07:22.115Z,24.32
2023-05-06T08:08:22.117Z,24.32
2023-05-06T08:09:22.924Z,24.32
2023-05-06T08:10:22.323Z,24.31
2023-05-06T08:11:22.228Z,24.31
2023-05-06T08:12:22.316Z,24.32
2023-05-06T08:13:22.500Z,24.31
2023-05-06T08:14:22.383Z,24.31
2023-05-06T08:15:22.431Z,24.31
2023-05-06T08:16:25.042Z,24.32
2023-05-06T08:17:22.551Z,24.31
2023-05-06T08:18:23.308Z,24.31
2023-05-06T08:19:22.460Z,24.31
2023-05-06T08:20:22.500Z,24.31
2023-05-06T08:21:22.463Z,24.32
2023-05-06T08:22:22.456Z,24.31
2023-05-06T08:23:22.437Z,24.31
2023-05-06T08:24:22.443Z,24.32
2023-05-06T08:25:22.443Z,24.32
2023-05-06T08:26:22.409Z,24.32
2023-05-06T08:27:22.413Z,24.32
2023-05-06T08:28:24.600Z,24.32
2023-05-06T08:29:22.405Z,24.32
2023-05-06T08:30:22.408Z,24.32
2023-05-06T08:31:22.421Z,24.32
2023-05-06T08:32:22.626Z,24.32
2023-05-06T08:33:22.396Z,24.32
2023-05-06T08:34:22.372Z,24.31
2023-05-06T08:35:22.359Z,24.31
2023-05-06T08:36:22.403Z,24.32
2023-05-06T08:37:22.330Z,24.32
2023-05-06T08:38:22.326Z,24.32
2023-05-06T08:39:22.326Z,24.31
2023-05-06T08:40:22.468Z,24.32
2023-05-06T08:41:22.301Z,24.32
2023-05-06T08:42:22.326Z,24.32
2023-05-06T08:43:22.286Z,24.32
2023-05-06T08:44:22.299Z,24.32
2023-05-06T08:45:22.355Z,24.33
2023-05-06T08:46:22.342Z,24.33
2023-05-06T08:47:22.336Z,24.32
2023-05-06T08:48:22.268Z,24.32
2023-05-06T08:49:22.247Z,24.32
2023-05-06T08:50:22.248Z,24.32
2023-05-06T08:51:23.717Z,24.33
2023-05-06T08:52:22.228Z,24.32
2023-05-06T08:53:22.243Z,24.32
2023-05-06T08:54:22.231Z,24.32
2023-05-06T08:55:22.220Z,24.32
2023-05-06T08:56:22.196Z,24.32
2023-05-06T08:57:22.205Z,24.33
2023-05-06T08:58:22.198Z,24.32
2023-05-06T08:59:22.200Z,24.32
2023-05-06T09:00:22.257Z,24.31
2023-05-06T09:01:22.205Z,24.32
2023-05-06T09:02:22.380Z,24.32
2023-05-06T09:03:22.214Z,24.32
2023-05-06T09:04:22.150Z,24.32
2023-05-06T09:05:22.162Z,24.32
2023-05-06T09:06:22.153Z,24.32
2023-05-06T09:07:22.146Z,24.32
2023-05-06T09:08:22.146Z,24.32
2023-05-06T09:09:22.130Z,24.33
2023-05-06T09:10:22.119Z,24.32
2023-05-06T09:11:22.118Z,24.32
2023-05-06T09:12:22.173Z,24.32
2023-05-06T09:13:22.127Z,24.32
2023-05-06T09:14:22.115Z,24.32
2023-05-06T09:15:22.081Z,24.32
2023-05-06T09:16:22.112Z,24.31
2023-05-06T09:17:22.093Z,24.32
2023-05-06T09:18:22.048Z,24.32
2023-05-06T09:19:22.051Z,24.32
2023-05-06T09:20:22.033Z,24.32
2023-05-06T09:21:22.028Z,24.31
2023-05-06T09:22:22.068Z,24.32
2023-05-06T09:23:22.038Z,24.31
2023-05-06T09:24:22.013Z,24.32
2023-05-06T09:25:22.012Z,24.32
2023-05-06T09:26:22.039Z,24.31
2023-05-06T09:27:22.106Z,24.32
2023-05-06T09:28:22.172Z,24.31
2023-05-06T09:29:22.221Z,24.32
2023-05-06T09:30:22.274Z,24.32
2023-05-06T09:31:22.329Z,24.32
2023-05-06T09:32:22.457Z,24.32
2023-05-06T09:33:22.439Z,24.32
2023-05-06T09:34:22.477Z,24.32
2023-05-06T09:35:22.543Z,24.32
2023-05-06T09:36:22.583Z,24.32
2023-05-06T09:37:22.640Z,24.32
2023-05-06T09:38:22.696Z,24.32
2023-05-06T09:39:22.776Z,24.32
2023-05-06T09:40:22.853Z,24.32
2023-05-06T09:41:22.881Z,24.32
2023-05-06T09:42:22.937Z,24.33
2023-05-06T09:43:22.997Z,24.32
2023-05-06T09:44:23.048Z,24.32
2023-05-06T09:45:23.094Z,24.33
2023-05-06T09:46:23.244Z,24.33
2023-05-06T09:47:23.236Z,24.32
2023-05-06T09:48:23.439Z,24.32
2023-05-06T09:49:23.323Z,24.32
2023-05-06T09:50:23.368Z,24.32
2023-05-06T09:51:23.418Z,24.32
2023-05-06T09:52:23.495Z,24.32
2023-05-06T09:53:23.538Z,24.32
2023-05-06T09:54:23.580Z,24.32
2023-05-06T09:55:23.628Z,24.32
2023-05-06T09:56:23.689Z,24.32
2023-05-06T09:57:23.741Z,24.32
2023-05-06T09:58:23.826Z,24.32
2023-05-06T09:59:23.860Z,24.33
2023-05-06T10:00:23.925Z,24.32
2023-05-06T10:01:35.173Z,24.33
2023-05-06T10:02:25.008Z,24.32
2023-05-06T10:03:24.106Z,24.33
2023-05-06T10:04:25.561Z,24.32
2023-05-06T10:05:24.001Z,24.33
2023-05-06T10:06:24.017Z,24.32
2023-05-06T10:07:24.078Z,24.32
2023-05-06T10:08:24.181Z,24.33
2023-05-06T10:09:24.229Z,24.32
2023-05-06T10:11:24.331Z,24.32
2023-05-06T10:12:24.495Z,24.32
2023-05-06T10:13:24.475Z,24.32
2023-05-06T10:14:24.502Z,24.32
2023-05-06T10:15:24.541Z,24.32
2023-05-06T10:16:24.660Z,24.33
2023-05-06T10:17:24.682Z,24.32
2023-05-06T10:18:24.717Z,24.33
2023-05-06T10:19:25.633Z,24.33
2023-05-06T10:20:24.872Z,24.33
2023-05-06T10:21:24.872Z,24.33
2023-05-06T10:22:24.928Z,24.33
2023-05-06T10:23:25.008Z,24.33
2023-05-06T10:24:25.036Z,24.33
2023-05-06T10:25:25.098Z,24.33
2023-05-06T10:26:25.166Z,24.33
2023-05-06T10:27:25.212Z,24.32
2023-05-06T10:28:31.177Z,24.32
2023-05-06T10:29:26.268Z,24.32
2023-05-06T10:30:25.286Z,24.32
2023-05-06T10:31:25.285Z,24.32
2023-05-06T10:32:25.267Z,24.33
2023-05-06T10:33:25.228Z,24.32
2023-05-06T10:34:25.208Z,24.32
2023-05-06T10:35:25.202Z,24.33
2023-05-06T10:36:25.234Z,24.32
2023-05-06T10:37:25.221Z,24.32
2023-05-06T10:38:25.254Z,24.33
2023-05-06T10:39:25.312Z,24.33
2023-05-06T10:40:25.365Z,24.33
2023-05-06T10:41:25.424Z,24.32
2023-05-06T10:42:25.485Z,24.32
2023-05-06T10:43:25.553Z,24.33
2023-05-06T10:44:25.592Z,24.33
2023-05-06T10:45:25.680Z,24.32
2023-05-06T10:46:25.709Z,24.32
2023-05-06T10:47:25.806Z,24.33
2023-05-06T10:48:25.838Z,24.33
2023-05-06T10:49:25.888Z,24.33
2023-05-06T10:50:25.935Z,24.33
2023-05-06T10:51:26.006Z,24.33
2023-05-06T10:52:26.123Z,24.33
2023-05-06T10:53:26.162Z,24.33
2023-05-06T10:54:26.183Z,24.33
2023-05-06T10:55:26.281Z,24.33
2023-05-06T10:56:26.340Z,24.33
2023-05-06T10:57:26.368Z,24.33
2023-05-06T10:58:26.442Z,24.33
2023-05-06T10:59:26.513Z,24.32
2023-05-06T11:00:26.588Z,24.33
2023-05-06T11:01:26.717Z,24.33
2023-05-06T11:02:26.811Z,24.34
2023-05-06T11:03:26.768Z,24.33
2023-05-06T11:04:26.787Z,24.33
2023-05-06T11:05:26.852Z,24.33
2023-05-06T11:06:26.898Z,24.33
2023-05-06T11:07:26.958Z,24.33
2023-05-06T11:08:27.100Z,24.33
2023-05-06T11:09:27.087Z,24.33
2023-05-06T11:10:27.128Z,24.34
2023-05-06T11:11:27.189Z,24.34
2023-05-06T11:12:27.256Z,24.34
2023-05-06T11:13:27.505Z,24.34
2023-05-06T11:14:27.354Z,24.34
2023-05-06T11:15:27.420Z,24.34
2023-05-06T11:16:27.494Z,24.35
2023-05-06T11:17:27.571Z,24.34
2023-05-06T11:18:27.557Z,24.34
2023-05-06T11:19:27.618Z,24.34
2023-05-06T11:20:27.713Z,24.34
2023-05-06T11:21:27.734Z,24.35
2023-05-06T11:22:27.772Z,24.35
2023-05-06T11:23:27.837Z,24.34
2023-05-06T11:24:27.871Z,24.34
2023-05-06T11:25:27.934Z,24.35
2023-05-06T11:26:27.995Z,24.35
2023-05-06T11:27:28.051Z,24.35
2023-05-06T11:28:28.109Z,24.35
2023-05-06T11:29:28.168Z,24.35
2023-05-06T11:30:28.217Z,24.35
2023-05-06T11:31:28.305Z,24.35
2023-05-06T11:32:28.355Z,24.35
2023-05-06T11:33:28.377Z,24.35
2023-05-06T11:34:28.442Z,24.35
2023-05-06T11:35:28.489Z,24.35
2023-05-06T11:36:28.573Z,24.35
2023-05-06T11:37:28.656Z,24.35
2023-05-06T11:38:28.674Z,24.35
2023-05-06T11:39:28.729Z,24.35
2023-05-06T11:40:28.883Z,24.36
2023-05-06T11:41:28.845Z,24.36
2023-05-06T11:42:28.892Z,24.36
2023-05-06T11:43:28.939Z,24.36
2023-05-06T11:44:29.014Z,24.36
2023-05-06T11:45:29.057Z,24.36
2023-05-06T11:46:29.140Z,24.35
2023-05-06T11:47:29.230Z,24.35
2023-05-06T11:48:29.224Z,24.36
2023-05-06T11:49:29.274Z,24.36
2023-05-06T11:50:29.326Z,24.36
2023-05-06T11:51:29.375Z,24.36
2023-05-06T11:52:29.419Z,24.36
2023-05-06T11:53:29.464Z,24.35
2023-05-06T11:54:29.521Z,24.35
2023-05-06T11:55:29.578Z,24.36
2023-05-06T11:56:29.706Z,24.36
2023-05-06T11:57:29.678Z,24.36
2023-05-06T11:58:29.747Z,24.36
2023-05-06T11:59:29.801Z,24.36
2023-05-06T12:00:29.847Z,24.36
2023-05-06T12:01:29.883Z,24.36
2023-05-06T12:02:30.029Z,24.36
2023-05-06T12:03:30.231Z,24.36
2023-05-06T12:04:30.075Z,24.36
2023-05-06T12:05:30.104Z,24.36
2023-05-06T12:06:30.149Z,24.36
2023-05-06T12:07:30.204Z,24.36
2023-05-06T12:08:30.260Z,24.37
2023-05-06T12:09:30.313Z,24.36
2023-05-06T12:10:30.350Z,24.37
2023-05-06T12:11:30.409Z,24.37
2023-05-06T12:12:30.509Z,24.36
2023-05-06T12:13:30.516Z,24.37
2023-05-06T12:14:30.553Z,24.36
2023-05-06T12:15:30.594Z,24.36
2023-05-06T12:16:30.696Z,24.37
2023-05-06T12:17:30.723Z,24.36
2023-05-06T12:18:30.745Z,24.37
2023-05-06T12:19:30.805Z,24.37
2023-05-06T12:20:30.848Z,24.37
2023-05-06T12:21:30.925Z,24.37
2023-05-06T12:22:30.973Z,24.37
2023-05-06T12:23:31.074Z,24.37
2023-05-06T12:24:31.075Z,24.36
2023-05-06T12:25:31.116Z,24.37
2023-05-06T12:26:31.155Z,24.36
2023-05-06T12:27:31.204Z,24.37
2023-05-06T12:28:31.255Z,24.37
2023-05-06T12:29:31.330Z,24.37
2023-05-06T12:30:31.365Z,24.37
2023-05-06T12:31:31.450Z,24.37
2023-05-06T12:32:31.561Z,24.37
2023-05-06T12:33:31.525Z,24.37
2023-05-06T12:34:31.556Z,24.37
2023-05-06T12:35:31.624Z,24.37
2023-05-06T12:36:31.675Z,24.37
2023-05-06T12:37:31.722Z,24.37
2023-05-06T12:38:31.776Z,24.36
2023-05-06T12:39:31.803Z,24.37
2023-05-06T12:40:31.850Z,24.38
2023-05-06T12:41:31.926Z,24.37
2023-05-06T12:42:31.962Z,24.37
2023-05-06T12:43:32.012Z,24.37
2023-05-06T12:44:32.088Z,24.38
2023-05-06T12:45:32.158Z,24.37
2023-05-06T12:46:32.167Z,24.37
2023-05-06T12:47:32.245Z,24.38
2023-05-06T12:48:32.252Z,24.38
2023-05-06T12:49:32.320Z,24.38
2023-05-06T12:50:32.346Z,24.37
2023-05-06T12:51:32.443Z,24.38
2023-05-06T12:52:32.445Z,24.38
2023-05-06T12:53:32.504Z,24.38
2023-05-06T12:54:32.594Z,24.38